Merced, CA (95341)

3:58 PM PST on February 07, 2016 (GMT -0800)
North Merced | | Change Station
CLOSE
Current Station
Personal Weather Station
Location: Merced, CA
Elevation: 174 ft
Nearby Weather Stations

Elev 174 ft 37.34 °N, 120.48 °W | Updated 7 seconds ago

Clear
Clear
65.5 °F
Feels Like 65.5 °F
N
0.2
Wind Variable Wind from West
Gusts 3.4 mph

Today
High -- | Low -- °F
--% Chance of Precip.
Yesterday
High -- | Low -- °F
Precip. -- in
Pressure 30.21 in
Visibility 10.0 miles
Clouds Clear
Dew Point 52 °F
Humidity 61%
Rainfall 0.00 in
Snow Depth Not available.
6:59 AM 5:32 PM
Waning Crescent, 1% visible
METAR KMCE 072353Z AUTO 21004KT 10SM CLR 18/10 A3021 RMK AO2 SLP229 T01780100 10189 20111 56011
Pressure 30.21 in
Visibility 10.0 miles
Clouds Clear
Dew Point 52 °F
Humidity 61%
Rainfall 0.00 in
Snow Depth Not available.
6:59 AM 5:32 PM
Waning Crescent, 1% visible
METAR KMCE 072353Z AUTO 21004KT 10SM CLR 18/10 A3021 RMK AO2 SLP229 T01780100 10189 20111 56011

10-Day Weather Forecast

Almanac

Astronomy

Feb. 07, 2016 Rise Set
Actual Time
Civil Twilight
Nautical Twilight
Astronomical Twilight
Moon
Length of Visible Light
Length of Day
Tomorrow will be .
, % of the Moon is Illuminated

Today's Extremes

State Highs State Lows

Community

WunderPhotos

Upload Photos

1,891,329 photos uploaded!

WunderBlog® & News

Nearby

Air Quality

  Air Quality AQ Index Pollutant
Not available.

Snow Depth

Station Depth Elevation

Earthquake Activity

City Distance Mag. Time & Date
Minimum magnitude displayed is 2.5.

Coastal Water Temperatures

Place Temperature

Stations

Nearby Weather Stations

Station Location Temp. Windchill Dew Point Humidity Wind Precip. Elev Updated Type
                   

Watches & Warnings

There are currently no watches in effect.